Latest Coastal Weather Observations for Hamilton Island

IDQ60701

Issued at 9:21 am EST Wednesday 18 January 2017 (issued every 10 minutes, with the page automatically refreshed every 10 minutes)

About coastal observations | Map of coastal stations | Coastal observations for QLD | Marine services | Other Formats
Station Details ID: 033106 Name: HAMILTON ISLAND AIRPORT Lat: -20.37 Lon: 148.95 Height: 58.66 m
Data from the previous 72 hours. | See also: Recent months at Hamilton Island
Date/Time
EST
Temp
°C
Wind Pressure Rain since
9am
mm
Weather Cloud Vis
km
Sea
Height
m
Swell
Dir  Spd
kts
Gust
kts
hPa Trend Height
m
Period
s
Dir
18/09:06am 28.3 SSE 13 17 1014.5 - 0.0 - Partly cloudy 10 - - - -
18/09:00am 28.1 SSE 11 16 1014.1 - 0.6 - Cloudy 10 - - - -
18/08:30am 27.0 SSE 12 16 1014.6 - 0.6 - Partly cloudy 10 - - - -
18/08:18am 27.1 SSE 11 14 1014.6 - 0.6 - Partly cloudy 10 - - - -
18/08:00am 27.2 S 11 14 1014.5 - 0.6 - Partly cloudy 10 - - - -
18/07:30am 27.6 SSE 10 13 1014.2 - 0.6 - Cloudy 10 - - - -
18/07:07am 26.2 S 8 11 1014.2 - 0.6 - Partly cloudy 10 - - - -
18/07:00am 26.2 S 8 11 1014.0 - 0.6 - Partly cloudy 10 - - - -
18/06:30am 25.4 SSE 9 11 1013.6 - 0.6 - Partly cloudy 10 - - - -
18/06:09am 25.7 SE 7 10 1013.5 - 0.2 - Partly cloudy 10 - - - -
18/06:00am 25.1 SE 8 11 1013.0 - 0.2 - Cloudy 7 - - - -
18/05:52am 25.3 ESE 12 19 1013.2 - 0.2 - Partly cloudy 5 - - - -
18/05:30am 26.4 SE 12 15 1012.8 - 0.2 - Partly cloudy 10 - - - -
18/05:00am 26.6 SE 13 15 1012.4 - 0.2 - Partly cloudy 10 - - - -
18/04:30am 26.5 SE 13 16 1012.2 - 0.2 - - 10 - - - -
18/04:00am 26.5 SE 13 14 1012.0 - 0.2 - Partly cloudy 10 - - - -
18/03:30am 26.5 SE 13 15 1011.8 - 0.2 - Partly cloudy 10 - - - -
18/03:00am 26.7 ESE 14 16 1011.4 - 0.2 - Mostly clear 10 - - - -
18/02:30am 26.7 ESE 13 17 1012.1 - 0.2 - Partly cloudy 10 - - - -
18/02:00am 26.8 ESE 14 16 1012.2 - 0.2 - - 10 - - - -
18/01:30am 26.9 ESE 14 16 1012.6 - 0.2 - - 10 - - - -
18/01:00am 27.0 ESE 15 17 1013.1 - 0.2 - Partly cloudy 10 - - - -
18/12:30am 27.0 ESE 12 15 1013.6 - 0.2 - Partly cloudy 10 - - - -
18/12:00am 27.0 ESE 14 16 1013.5 - 0.2 - Mostly clear 10 - - - -
 
Date/Time
EST
Temp
°C
Wind Pressure Rain since
9am
mm
Weather Cloud Vis
km
Sea
Height
m
Swell
Dir  Spd
kts
Gust
kts
hPa Trend Height
m
Period
s
Dir
17/11:30pm 27.1 ESE 15 18 1014.2 - 0.2 - Partly cloudy 10 - - - -
17/11:00pm 27.1 ESE 15 17 1014.3 - 0.2 - Partly cloudy 10 - - - -
17/10:30pm 27.1 ESE 15 17 1014.5 - 0.2 - Partly cloudy 10 - - - -
17/10:00pm 27.2 ESE 14 17 1014.4 - 0.2 - Partly cloudy 10 - - - -
17/09:30pm 27.2 ESE 14 18 1014.4 - 0.2 - - 10 - - - -
17/09:00pm 27.4 ESE 16 19 1013.8 - 0.2 - - 10 - - - -
17/08:30pm 27.3 ESE 16 18 1014.0 - 0.2 - Partly cloudy 10 - - - -
17/08:00pm 27.5 ESE 14 19 1013.8 - 0.2 - Partly cloudy 10 - - - -
17/07:30pm 27.3 ESE 14 17 1013.7 - 0.2 - Partly cloudy 10 - - - -
17/07:00pm 27.4 ESE 13 17 1013.5 - 0.2 - Partly cloudy 10 - - - -
17/06:30pm 27.6 ESE 13 15 1013.4 - 0.2 - Partly cloudy 10 - - - -
17/06:00pm 28.0 ESE 14 16 1012.8 - 0.2 - Mostly clear 10 - - - -
17/05:30pm 28.2 ESE 14 17 1013.0 - 0.2 - Partly cloudy 10 - - - -
17/05:00pm 28.3 ESE 15 17 1012.6 - 0.2 - Partly cloudy 10 - - - -
17/04:30pm 28.4 ESE 16 18 1012.4 - 0.2 - Partly cloudy 10 - - - -
17/04:00pm 28.9 ESE 15 17 1012.4 - 0.2 - Partly cloudy 10 - - - -
17/03:30pm 28.9 ESE 15 17 1012.6 - 0.2 - Partly cloudy 10 - - - -
17/03:00pm 28.9 ESE 16 18 1012.3 - 0.2 - Cloudy 10 - - - -
17/02:30pm 28.7 ESE 14 17 1012.9 - 0.2 - Cloudy 10 - - - -
17/02:00pm 29.3 ESE 13 16 1013.1 - 0.2 - Cloudy 10 - - - -
17/01:30pm 29.1 ESE 15 17 1013.5 - 0.2 - Cloudy 10 - - - -
17/01:00pm 29.8 ESE 14 16 1013.8 - 0.2 - Cloudy 10 - - - -
17/12:30pm 29.8 ESE 15 17 1014.1 - 0.2 - - 10 - - - -
17/12:00pm 29.7 ESE 13 15 1014.1 - 0.2 - Partly cloudy 10 - - - -
17/11:30am 28.9 SE 14 16 1014.6 - 0.2 - Partly cloudy 10 - - - -
17/11:00am 29.4 SE 15 17 1014.8 - 0.2 - Partly cloudy 10 - - - -
17/10:30am 29.5 ESE 14 16 1014.9 - 0.2 - Partly cloudy 10 - - - -
17/10:00am 28.7 ESE 12 14 1014.9 - 0.0 - Partly cloudy 10 - - - -
17/09:30am 27.9 ESE 13 15 1014.7 - 0.0 - Partly cloudy 10 - - - -
17/09:00am 27.0 ESE 13 16 1014.4 - 3.6 - Cloudy 10 - - - -
17/08:38am 26.1 E 10 13 1014.6 - 3.6 - Partly cloudy 10 - - - -
17/08:30am 25.5 ENE 6 10 1014.6 - 3.6 - Partly cloudy 9 - - - -
17/08:19am 25.0 E 10 15 1014.6 - 3.4 - Partly cloudy 6 - - - -
17/08:00am 25.6 SE 13 16 1014.5 - 1.2 - Partly cloudy 10 - - - -
17/07:30am 26.9 ESE 9 11 1014.4 - 1.2 - Partly cloudy 10 - - - -
17/07:00am 26.3 ESE 17 21 1013.9 - 1.2 - Partly cloudy 10 - - - -
17/06:30am 27.1 ESE 14 17 1013.6 - 1.2 - Partly cloudy 10 - - - -
17/06:00am 26.8 E 16 19 1013.0 - 1.2 - Mostly cloudy 10 - - - -
17/05:30am 26.9 E 13 16 1012.9 - 1.2 - Partly cloudy 10 - - - -
17/05:00am 26.1 ENE 8 10 1012.6 - 1.2 - Partly cloudy 10 - - - -
17/04:30am 26.8 E 13 16 1012.1 - 1.2 - Partly cloudy 10 - - - -
17/04:00am 26.1 E 10 12 1012.0 - 1.2 - Cloudy 10 - - - -
17/03:52am 25.9 E 11 14 1011.9 - 1.2 - Cloudy 10 - - - -
17/03:30am 25.1 ENE 12 15 1011.8 - 1.2 - Partly cloudy 4 - - - -
17/03:15am 25.3 ENE 19 26 1011.7 - 1.0 - Partly cloudy 6 - - - -
17/03:08am 26.0 ENE 22 26 1011.4 - 0.2 - Partly cloudy 10 - - - -
17/03:00am 26.3 E 10 14 1011.3 - 0.2 - Cloudy 10 - - - -
17/02:58am 26.3 E 11 14 1011.6 - 0.2 - Partly cloudy 10 - - - -
17/02:48am 27.0 E 11 16 1011.6 - 0.0 - Partly cloudy 10 - - - -
17/02:30am 27.0 E 10 14 1011.7 - 0.0 - Partly cloudy 10 - - - -
17/02:03am 27.0 ENE 11 15 1011.9 - 0.0 - Partly cloudy 10 - - - -
17/02:00am 27.0 ENE 11 15 1011.9 - 0.0 - Partly cloudy 10 - - - -
17/01:39am 27.0 ENE 13 16 1011.9 - 0.0 - Partly cloudy 10 - - - -
17/01:30am 27.0 ENE 12 16 1012.1 - 0.0 - Partly cloudy 10 - - - -
17/01:05am 27.1 ENE 11 16 1012.4 - 0.0 - Partly cloudy 10 - - - -
17/01:00am 27.2 ENE 11 15 1012.5 - 0.0 - Partly cloudy 10 - - - -
17/12:33am 27.2 E 12 15 1012.7 - 0.0 - Partly cloudy 10 - - - -
17/12:30am 27.1 E 12 15 1012.7 - 0.0 - Partly cloudy 10 - - - -
17/12:00am 27.0 E 10 14 1012.3 - 0.0 - - 10 - - - -
 
Date/Time
EST
Temp
°C
Wind Pressure Rain since
9am
mm
Weather Cloud Vis
km
Sea
Height
m
Swell
Dir  Spd
kts
Gust
kts
hPa Trend Height
m
Period
s
Dir
16/11:31pm 27.1 ENE 12 16 1013.1 - 0.0 - Partly cloudy 10 - - - -
16/11:30pm 27.1 ENE 12 16 1013.1 - 0.0 - Partly cloudy 10 - - - -
16/11:01pm 27.2 E 12 17 1013.2 - 0.0 - Partly cloudy 10 - - - -
16/11:00pm 27.3 E 12 17 1013.2 - 0.0 - Partly cloudy 10 - - - -
16/10:30pm 27.3 E 14 17 1013.1 - 0.0 - Partly cloudy 10 - - - -
16/10:02pm 27.4 E 15 19 1012.8 - 0.0 - Partly cloudy 10 - - - -
16/10:00pm 27.4 E 15 19 1012.8 - 0.0 - Partly cloudy 10 - - - -
16/09:47pm 27.5 ENE 15 20 1012.8 - 0.0 - Partly cloudy 10 - - - -
16/09:30pm 27.5 E 15 21 1012.9 - 0.0 - Partly cloudy 10 - - - -
16/09:00pm 27.7 E 15 18 1012.1 - 0.0 - Mostly clear 10 - - - -
16/08:30pm 27.5 E 10 13 1012.5 - 0.0 - Partly cloudy 10 - - - -
16/08:00pm 27.3 E 8 11 1012.2 - 0.0 - - 10 - - - -
16/07:30pm 27.2 E 12 16 1011.9 - 0.0 - Partly cloudy 10 - - - -
16/07:00pm 27.0 ESE 9 11 1011.7 - 0.0 - - 10 - - - -
16/06:30pm 27.2 ESE 10 11 1011.4 - 0.0 - Partly cloudy 10 - - - -
16/06:00pm 27.7 E 10 13 1010.5 - 0.0 - - 10 - - - -
16/05:30pm 27.8 ESE 10 13 1010.8 - 0.0 - - 10 - - - -
16/05:00pm 27.5 ESE 11 16 1010.6 - 0.0 - Partly cloudy 10 - - - -
16/04:30pm 27.8 E 15 18 1010.4 - 0.0 - Partly cloudy 10 - - - -
16/04:00pm 29.0 ENE 12 15 1010.2 - 0.0 - - - - - - -
16/03:30pm 28.7 E 13 19 1010.5 - 0.0 - Partly cloudy 10 - - - -
16/03:00pm 29.6 E 9 12 1009.9 - 0.0 - Mostly clear 10 - - - -
16/02:30pm 29.5 E 9 12 1010.5 - 0.0 - Partly cloudy 10 - - - -
16/02:19pm 30.0 ENE 9 13 1010.6 - 0.0 - Partly cloudy 10 - - - -
16/02:00pm 29.2 E 11 14 1010.6 - 0.0 - Partly cloudy 10 - - - -
16/01:37pm 29.3 ESE 12 14 1010.5 - 0.0 - Partly cloudy 10 - - - -
16/01:30pm 29.5 ESE 11 13 1010.6 - 0.0 - Partly cloudy 10 - - - -
16/01:19pm 28.7 E 12 15 1010.7 - 0.0 - Partly cloudy 10 - - - -
16/01:00pm 28.7 SE 10 12 1010.8 - 0.0 - Partly cloudy 10 - - - -
16/12:54pm 29.2 SE 9 12 1010.7 - 0.0 - Partly cloudy 10 - - - -
16/12:30pm 29.9 SE 8 9 1010.9 - 0.0 - - 10 - - - -
16/12:00pm 29.0 SE 9 11 1010.6 - 0.0 - Mostly cloudy 10 - - - -
16/11:30am 30.1 SSE 8 11 1011.2 - 0.0 - Cloudy 10 - - - -
16/11:00am 28.8 SSE 7 8 1011.4 - 0.0 - Partly cloudy 10 - - - -
16/10:30am 29.0 WNW 5 7 1011.6 - 0.0 - - 10 - - - -
16/10:00am 28.8 NNW 8 11 1011.6 - 0.0 - - 10 - - - -
16/09:30am 28.1 NNW 9 11 1011.5 - 0.0 - Partly cloudy 10 - - - -
16/09:00am 26.8 NW 9 11 1011.1 - 0.6 - Cloudy 10 - - - -
16/08:30am 27.7 NW 9 12 1011.3 - 0.6 - Partly cloudy 10 - - - -
16/08:00am 26.7 WNW 6 7 1011.3 - 0.6 - Partly cloudy 10 - - - -
16/07:30am 26.2 NW 11 14 1011.0 - 0.6 - Partly cloudy 10 - - - -
16/07:00am 27.7 N 6 11 1010.5 - 0.6 - Partly cloudy 10 - - - -
16/06:30am 27.5 NE 7 8 1010.0 - 0.6 - - 10 - - - -
16/06:00am 27.0 NE 7 8 1009.3 - 0.6 - Mostly clear 10 - - - -
16/05:30am 26.5 NE 6 8 1009.6 - 0.6 - - 10 - - - -
16/05:00am 26.3 NE 6 7 1009.3 - 0.6 - Partly cloudy 10 - - - -
16/04:30am 26.5 ENE 5 6 1008.8 - 0.6 - Cloudy 10 - - - -
16/04:00am 26.6 NE 5 6 1008.8 - 0.6 - Cloudy 10 - - - -
16/03:30am 26.8 NNE 6 8 1008.6 - 0.6 - Cloudy 10 - - - -
16/03:00am 26.6 NE 6 8 1008.3 - 0.6 - Cloudy 10 - - - -
16/02:30am 26.6 NE 4 6 1008.7 - 0.6 - Cloudy 10 - - - -
16/02:00am 26.6 N 5 7 1008.5 - 0.6 - Partly cloudy 10 - - - -
16/01:30am 26.6 N 7 9 1008.7 - 0.6 - - 10 - - - -
16/01:00am 26.7 N 6 7 1009.3 - 0.6 - - 10 - - - -
16/12:30am 26.8 NNW 6 8 1009.4 - 0.6 - - 10 - - - -
16/12:00am 26.8 NNW 6 8 1009.2 - 0.6 - - 10 - - - -
 
Date/Time
EST
Temp
°C
Wind Pressure Rain since
9am
mm
Weather Cloud Vis
km
Sea
Height
m
Swell
Dir  Spd
kts
Gust
kts
hPa Trend Height
m
Period
s
Dir
15/11:30pm 27.0 N 8 10 1009.8 - 0.6 - - 10 - - - -
15/11:00pm 26.9 NNE 7 11 1009.7 - 0.6 - - 10 - - - -
15/10:30pm 27.1 N 8 10 1009.6 - 0.6 - - 10 - - - -
15/10:00pm 27.0 N 8 10 1009.9 - 0.6 - - 10 - - - -
15/09:30pm 27.2 N 10 13 1009.7 - 0.6 - - 10 - - - -
15/09:00pm 27.4 NNW 10 14 1008.9 - 0.6 - Mostly clear 10 - - - -
15/08:30pm 27.4 NNW 13 17 1009.0 - 0.6 - Partly cloudy 10 - - - -
15/08:00pm 27.5 NNW 14 18 1008.5 - 0.6 - - 10 - - - -
15/07:30pm 27.6 NNW 15 19 1008.1 - 0.6 - - 10 - - - -
15/07:00pm 27.7 NNW 16 20 1007.7 - 0.6 - - 10 - - - -
15/06:30pm 27.8 NNW 15 19 1007.5 - 0.6 - - 10 - - - -
15/06:00pm 28.1 NNW 17 21 1006.9 - 0.6 - - 10 - - - -
15/05:30pm 28.8 NNW 16 19 1007.0 - 0.6 - - 10 - - - -
15/05:00pm 29.0 NNW 17 21 1006.3 - 0.6 - - 10 - - - -
15/04:30pm 28.8 NNW 19 25 1006.1 - 0.6 - - 10 - - - -
15/04:00pm 29.4 NNW 15 19 1006.2 - 0.6 - - 10 - - - -
15/03:30pm 30.3 NNW 12 14 1006.6 - 0.6 - - 10 - - - -
15/03:00pm 30.9 NNW 9 12 1006.3 - 0.6 - - 10 - - - -
15/02:30pm 30.3 NNW 12 15 1007.2 - 0.6 - - 10 - - - -
15/02:00pm 29.8 NNW 11 14 1007.5 - 0.6 - - 10 - - - -
15/01:30pm 29.7 NNW 12 15 1008.0 - 0.6 - - 10 - - - -
15/01:00pm 29.4 NNW 12 16 1008.4 - 0.6 - - 10 - - - -
15/12:30pm 29.1 NNW 13 15 1008.6 - 0.6 - - 10 - - - -
15/12:00pm 29.2 NW 13 16 1008.5 - 0.6 - - 10 - - - -
15/11:30am 28.7 NW 19 24 1008.9 - 0.4 - - 10 - - - -
15/11:06am 28.1 NW 19 25 1009.1 - 0.4 - Partly cloudy 10 - - - -
15/11:00am 28.0 NNW 20 25 1009.2 - 0.4 - Partly cloudy 10 - - - -
15/10:48am 27.8 NNW 21 24 1009.1 - 0.4 - Partly cloudy 10 - - - -
15/10:30am 27.6 NNW 20 26 1009.3 - 0.4 - Partly cloudy 10 - - - -
15/10:00am 26.7 NNW 17 22 1009.8 - 0.4 - Partly cloudy 10 - - - -
15/09:30am 27.6 NNW 18 23 1009.8 - 0.2 - Partly cloudy 10 - - - -

Other Formats:

Comma delimited format used in spreadsheet applications
http://www.bom.gov.au/fwo/IDQ60701/IDQ60701.94368.axf

JavaScript Object Notation format (JSON) in row-major order
http://www.bom.gov.au/fwo/IDQ60701/IDQ60701.94368.json